Time,TemperatureF,DewpointF,PressureIn,WindDirection,WindDirectionDegrees,WindSpeedMPH,WindSpeedGustMPH,Humidity,HourlyPrecipIn,Conditions,Clouds,dailyrainin,SoftwareType,DateUTC
2013-08-21 00:07:00,77.9,68.9,29.93,West,270,2.2,-999.0,74,-99.99,,,0.00,Acu-Link.com,2013-08-21 04:07:00,
2013-08-21 00:22:00,77.7,69.1,29.93,West,270,2.7,-999.0,75,-99.99,,,0.00,Acu-Link.com,2013-08-21 04:22:00,
2013-08-21 00:37:00,77.9,68.5,29.93,WSW,247,2.2,-999.0,73,-99.99,,,0.00,Acu-Link.com,2013-08-21 04:37:00,
2013-08-21 00:53:00,77.7,69.1,29.93,West,270,0.0,-999.0,75,-99.99,,,0.00,Acu-Link.com,2013-08-21 04:53:00,
2013-08-21 01:08:00,77.2,69.0,29.93,West,270,0.0,-999.0,76,-99.99,,,0.00,Acu-Link.com,2013-08-21 05:08:00,
2013-08-21 01:23:00,77.5,68.1,29.93,South,180,1.7,-999.0,73,-99.99,,,0.00,Acu-Link.com,2013-08-21 05:23:00,
2013-08-21 01:39:00,77.7,68.3,29.93,East,90,2.7,-999.0,73,-99.99,,,0.00,Acu-Link.com,2013-08-21 05:39:00,
2013-08-21 01:54:00,77.0,67.7,29.93,West,270,1.7,-999.0,73,-99.99,,,0.00,Acu-Link.com,2013-08-21 05:54:00,
2013-08-21 02:09:00,76.8,66.3,29.93,East,90,1.7,-999.0,70,-99.99,,,0.00,Acu-Link.com,2013-08-21 06:09:00,
2013-08-21 02:25:00,76.8,65.4,29.93,SSW,202,1.1,-999.0,68,-99.99,,,0.00,Acu-Link.com,2013-08-21 06:25:00,
2013-08-21 02:40:00,76.5,65.6,29.93,ENE,67,0.0,-999.0,69,-99.99,,,0.00,Acu-Link.com,2013-08-21 06:40:00,
2013-08-21 02:55:00,76.3,64.5,29.94,WSW,247,1.7,-999.0,67,-99.99,,,0.00,Acu-Link.com,2013-08-21 06:55:00,
2013-08-21 03:10:00,76.5,64.3,29.93,WNW,292,1.1,-999.0,66,-99.99,,,0.00,Acu-Link.com,2013-08-21 07:10:00,
2013-08-21 03:26:00,76.1,64.3,29.94,East,90,0.0,-999.0,67,-99.99,,,0.00,Acu-Link.com,2013-08-21 07:26:00,
2013-08-21 03:41:00,75.6,65.1,29.94,West,270,0.0,-999.0,70,-99.99,,,0.00,Acu-Link.com,2013-08-21 07:41:00,
2013-08-21 03:56:00,75.6,64.3,29.94,West,270,1.7,-999.0,68,-99.99,,,0.00,Acu-Link.com,2013-08-21 07:56:00,
2013-08-21 04:12:00,75.4,64.1,29.94,South,180,0.0,-999.0,68,-99.99,,,0.00,Acu-Link.com,2013-08-21 08:12:00,
2013-08-21 04:27:00,75.6,64.3,29.94,West,270,0.0,-999.0,68,-99.99,,,0.00,Acu-Link.com,2013-08-21 08:27:00,
2013-08-21 10:10:00,82.0,66.2,29.99,WNW,292,2.2,-999.0,59,-99.99,,,0.00,Acu-Link.com,2013-08-21 14:10:00,
2013-08-21 10:25:00,85.8,67.2,29.99,West,270,0.0,-999.0,54,-99.99,,,0.00,Acu-Link.com,2013-08-21 14:25:00,
2013-08-21 10:41:00,82.6,64.2,29.99,WNW,292,2.2,-999.0,54,-99.99,,,0.00,Acu-Link.com,2013-08-21 14:41:00,
2013-08-21 10:56:00,83.5,65.6,29.99,NW,315,3.2,-999.0,55,-99.99,,,0.00,Acu-Link.com,2013-08-21 14:56:00,
2013-08-21 11:11:00,84.2,65.2,29.99,NNE,22,2.7,-999.0,53,-99.99,,,0.00,Acu-Link.com,2013-08-21 15:11:00,
2013-08-21 11:26:00,84.7,64.0,29.98,West,270,4.7,-999.0,50,-99.99,,,0.00,Acu-Link.com,2013-08-21 15:26:00,
2013-08-21 11:42:00,85.5,64.1,29.99,West,270,3.7,-999.0,49,-99.99,,,0.00,Acu-Link.com,2013-08-21 15:42:00,
2013-08-21 11:57:00,85.8,63.8,29.98,WSW,247,1.7,-999.0,48,-99.99,,,0.00,Acu-Link.com,2013-08-21 15:57:00,
2013-08-21 12:12:00,86.5,62.6,29.98,West,270,4.2,-999.0,45,-99.99,,,0.00,Acu-Link.com,2013-08-21 16:12:00,
2013-08-21 12:27:00,87.1,63.8,29.98,WNW,292,2.2,-999.0,46,-99.99,,,0.00,Acu-Link.com,2013-08-21 16:27:00,
2013-08-21 12:43:00,85.6,63.0,29.97,West,270,0.0,-999.0,47,-99.99,,,0.00,Acu-Link.com,2013-08-21 16:43:00,
2013-08-21 12:58:00,86.5,62.6,29.97,WNW,292,0.0,-999.0,45,-99.99,,,0.00,Acu-Link.com,2013-08-21 16:58:00,
2013-08-21 13:13:00,88.2,62.8,29.96,West,270,3.7,-999.0,43,-99.99,,,0.00,Acu-Link.com,2013-08-21 17:13:00,
2013-08-21 13:28:00,88.9,63.5,29.95,West,270,4.7,-999.0,43,-99.99,,,0.00,Acu-Link.com,2013-08-21 17:28:00,
2013-08-21 13:44:00,88.7,62.6,29.95,West,270,4.2,-999.0,42,-99.99,,,0.00,Acu-Link.com,2013-08-21 17:44:00,
2013-08-21 13:59:00,89.2,62.4,29.94,West,270,4.2,-999.0,41,-99.99,,,0.00,Acu-Link.com,2013-08-21 17:59:00,
2013-08-21 14:14:00,90.3,62.7,29.94,NNW,337,3.7,-999.0,40,-99.99,,,0.00,Acu-Link.com,2013-08-21 18:14:00,
2013-08-21 14:29:00,90.0,62.4,29.94,NW,315,4.7,-999.0,40,-99.99,,,0.00,Acu-Link.com,2013-08-21 18:29:00,
2013-08-21 14:44:00,90.0,63.1,29.93,NW,315,2.2,-999.0,41,-99.99,,,0.00,Acu-Link.com,2013-08-21 18:44:00,
2013-08-21 14:59:00,91.2,63.5,29.92,WSW,247,5.8,-999.0,40,-99.99,,,0.00,Acu-Link.com,2013-08-21 18:59:00,
2013-08-21 15:14:00,90.5,62.8,29.91,NNE,22,3.2,-999.0,40,-99.99,,,0.00,Acu-Link.com,2013-08-21 19:14:00,
2013-08-21 15:30:00,90.5,64.2,29.91,West,270,6.8,-999.0,42,-99.99,,,0.00,Acu-Link.com,2013-08-21 19:30:00,
2013-08-21 15:45:00,90.5,62.8,29.91,West,270,5.8,-999.0,40,-99.99,,,0.00,Acu-Link.com,2013-08-21 19:45:00,
2013-08-21 16:00:00,90.5,63.5,29.91,SE,135,5.3,-999.0,41,-99.99,,,0.00,Acu-Link.com,2013-08-21 20:00:00,
2013-08-21 16:15:00,90.1,63.2,29.90,WSW,247,8.3,-999.0,41,-99.99,,,0.00,Acu-Link.com,2013-08-21 20:15:00,
2013-08-21 16:31:00,87.8,65.6,29.90,NW,315,6.8,-999.0,48,-99.99,,,0.00,Acu-Link.com,2013-08-21 20:31:00,
2013-08-21 16:46:00,88.7,63.3,29.90,West,270,5.8,-999.0,43,-99.99,,,0.00,Acu-Link.com,2013-08-21 20:46:00,
2013-08-21 17:01:00,86.9,64.8,29.90,West,270,4.7,-999.0,48,-99.99,,,0.00,Acu-Link.com,2013-08-21 21:01:00,
2013-08-21 17:16:00,88.0,63.3,29.89,West,270,5.8,-999.0,44,-99.99,,,0.00,Acu-Link.com,2013-08-21 21:16:00,
2013-08-21 17:31:00,86.2,64.8,29.89,West,270,6.3,-999.0,49,-99.99,,,0.00,Acu-Link.com,2013-08-21 21:31:00,
2013-08-21 17:47:00,87.4,65.3,29.88,NNE,22,4.7,-999.0,48,-99.99,,,0.00,Acu-Link.com,2013-08-21 21:47:00,
2013-08-21 18:02:00,87.4,66.4,29.88,West,270,6.3,-999.0,50,-99.99,,,0.00,Acu-Link.com,2013-08-21 22:02:00,
2013-08-21 18:17:00,87.6,66.0,29.88,SW,225,7.3,-999.0,49,-99.99,,,0.00,Acu-Link.com,2013-08-21 22:17:00,
2013-08-21 18:32:00,87.6,66.0,29.88,North,0,4.7,-999.0,49,-99.99,,,0.00,Acu-Link.com,2013-08-21 22:32:00,
2013-08-21 18:47:00,87.4,67.0,29.88,West,270,5.3,-999.0,51,-99.99,,,0.00,Acu-Link.com,2013-08-21 22:47:00,
2013-08-21 19:02:00,86.4,66.1,29.88,West,270,3.7,-999.0,51,-99.99,,,0.00,Acu-Link.com,2013-08-21 23:02:00,
2013-08-21 19:18:00,85.1,66.6,29.88,West,270,3.7,-999.0,54,-99.99,,,0.00,Acu-Link.com,2013-08-21 23:18:00,
2013-08-21 19:33:00,84.0,66.1,29.88,SW,225,1.1,-999.0,55,-99.99,,,0.00,Acu-Link.com,2013-08-21 23:33:00,
2013-08-21 19:49:00,83.7,66.3,29.88,East,90,2.2,-999.0,56,-99.99,,,0.00,Acu-Link.com,2013-08-21 23:49:00,
2013-08-21 20:04:00,83.1,66.8,29.88,West,270,4.2,-999.0,58,-99.99,,,0.00,Acu-Link.com,2013-08-22 00:04:00,
2013-08-21 20:19:00,82.8,67.0,29.88,WNW,292,2.2,-999.0,59,-99.99,,,0.00,Acu-Link.com,2013-08-22 00:19:00,
2013-08-21 20:34:00,82.9,66.6,29.89,West,270,1.7,-999.0,58,-99.99,,,0.00,Acu-Link.com,2013-08-22 00:34:00,
2013-08-21 20:49:00,82.4,67.6,29.89,SE,135,0.0,-999.0,61,-99.99,,,0.00,Acu-Link.com,2013-08-22 00:49:00,
2013-08-21 21:05:00,82.2,67.9,29.89,SSW,202,0.0,-999.0,62,-99.99,,,0.00,Acu-Link.com,2013-08-22 01:05:00,
2013-08-21 21:20:00,81.7,68.3,29.89,SSW,202,0.0,-999.0,64,-99.99,,,0.00,Acu-Link.com,2013-08-22 01:20:00,
2013-08-21 21:35:00,81.7,67.9,29.89,NNW,337,0.0,-999.0,63,-99.99,,,0.00,Acu-Link.com,2013-08-22 01:35:00,
2013-08-21 21:50:00,81.5,68.1,29.90,West,270,0.0,-999.0,64,-99.99,,,0.00,Acu-Link.com,2013-08-22 01:50:00,
2013-08-21 22:06:00,80.8,67.9,29.89,WSW,247,2.2,-999.0,65,-99.99,,,0.00,Acu-Link.com,2013-08-22 02:06:00,
2013-08-21 22:21:00,81.0,68.1,29.90,West,270,2.2,-999.0,65,-99.99,,,0.00,Acu-Link.com,2013-08-22 02:21:00,
2013-08-21 22:36:00,80.4,68.0,29.89,West,270,3.2,-999.0,66,-99.99,,,0.00,Acu-Link.com,2013-08-22 02:36:00,
2013-08-21 22:51:00,80.2,68.2,29.88,WNW,292,0.0,-999.0,67,-99.99,,,0.00,Acu-Link.com,2013-08-22 02:51:00,
2013-08-21 23:07:00,80.1,68.6,29.88,NNW,337,0.0,-999.0,68,-99.99,,,0.00,Acu-Link.com,2013-08-22 03:07:00,
2013-08-21 23:22:00,79.9,68.4,29.87,West,270,0.0,-999.0,68,-99.99,,,0.00,Acu-Link.com,2013-08-22 03:22:00,
2013-08-21 23:37:00,79.7,68.2,29.87,West,270,1.7,-999.0,68,-99.99,,,0.00,Acu-Link.com,2013-08-22 03:37:00,
2013-08-21 23:53:00,79.3,67.8,29.86,WSW,247,1.1,-999.0,68,-99.99,,,0.00,Acu-Link.com,2013-08-22 03:53:00,